CheckWX is a tool to help pilots better visualize weather data.  It is not intended as a substitute for an official pre-flight weather briefing.

04:53:35 UTC

KSSF TAF
Stinson Municipal Airport
San Antonio, Texas, USA
KSSF 270316Z 2703/2724 13008KT P6SM VCSH SCT030 BKN250 FM270700 VRB03KT P6SM BKN013 FM271600 15006KT P6SM BKN025 FM271800 13010KT P6SM SCT035

Jun-27@
03:00 UTC

Jun-27 @ 03:00 UTC

Jun-27@
07:00 UTC

Jun-27 @ 07:00 UTC

KSSF 270316Z 2703/2724 13008KT P6SM VCSH SCT030 BKN250
Wind
  • 130° at 8 KTS
Cloud Levels
  • Scattered at 3,000' AGL
  • Broken at 25,000' AGL

Jun-27@
07:00 UTC

Jun-27 @ 07:00 UTC

Jun-27@
16:00 UTC

Jun-27 @ 16:00 UTC

FM270700 VRB03KT P6SM BKN013

From

From Standard forecast or significant change

Wind
  • Variable at 3 KTS
Cloud Levels
  • Broken at 1,300' AGL

Jun-27@
16:00 UTC

Jun-27 @ 16:00 UTC

Jun-27@
18:00 UTC

Jun-27 @ 18:00 UTC

FM271600 15006KT P6SM BKN025

From

From Standard forecast or significant change

Wind
  • 150° at 6 KTS
Cloud Levels
  • Broken at 2,500' AGL

Jun-27@
18:00 UTC

Jun-27 @ 18:00 UTC

Jun-28@
00:00 UTC

Jun-28 @ 00:00 UTC

FM271800 13010KT P6SM SCT035

From

From Standard forecast or significant change

Wind
  • 130° at 10 KTS
Cloud Levels
  • Scattered at 3,500' AGL